Time;durP1;ratioP1;P1;durP2;ratioP2;P2;SDS_P1;SDS_P2;PMS_P1;PMS_P2;Temp;Humidity;BMP_temperature;BMP_pressure;BME280_temperature;BME280_humidity;BME280_pressure;Samples;Min_cycle;Max_cycle;Signal;HPM_P1;HPM_P2
2021/03/21 00:00:52;;;;;;;5.63;2.95;;;0.00;67.00;;;;;;5080359;28;20025;-73
2021/03/21 00:03:19;;;;;;;3.88;2.10;;;-0.10;67.20;;;;;;5062489;28;20070;-73
2021/03/21 00:05:46;;;;;;;2.90;2.47;;;-0.10;63.00;;;;;;5080483;28;20025;-73
2021/03/21 00:08:14;;;;;;;3.10;1.88;;;0.00;62.80;;;;;;5080403;28;20024;-72
2021/03/21 00:10:40;;;;;;;3.15;1.98;;;0.10;60.90;;;;;;5080377;28;20046;-72
2021/03/21 00:13:06;;;;;;;2.28;1.70;;;0.10;61.50;;;;;;5080257;28;20450;-72
2021/03/21 00:15:32;;;;;;;1.73;1.25;;;0.10;57.00;;;;;;5080073;28;20104;-72
2021/03/21 00:17:59;;;;;;;1.75;1.33;;;0.20;52.50;;;;;;5080248;28;20108;-72
2021/03/21 00:20:29;;;;;;;4.57;1.15;;;0.40;50.60;;;;;;5080257;28;20086;-72
2021/03/21 00:22:55;;;;;;;1.13;0.90;;;0.60;46.80;;;;;;5080020;28;20043;-72
2021/03/21 00:25:23;;;;;;;1.73;1.00;;;0.70;44.20;;;;;;5079612;28;20425;-72
2021/03/21 00:27:49;;;;;;;1.63;1.08;;;0.90;43.80;;;;;;5062067;28;20032;-72
2021/03/21 00:30:22;;;;;;;2.35;1.20;;;0.90;44.20;;;;;;5079736;28;20043;-72
2021/03/21 00:32:47;;;;;;;1.48;1.23;;;1.00;43.50;;;;;;5079901;28;20028;-72
2021/03/21 00:35:13;;;;;;;1.65;1.13;;;1.00;44.60;;;;;;5079624;28;20096;-72
2021/03/21 00:37:41;;;;;;;2.20;1.55;;;1.10;44.30;;;;;;5079907;28;20029;-72
2021/03/21 00:40:10;;;;;;;1.33;1.05;;;1.20;44.10;;;;;;5061741;28;20029;-72
2021/03/21 00:42:36;;;;;;;2.05;1.40;;;1.10;46.80;;;;;;5079461;28;20400;-72
2021/03/21 00:45:04;;;;;;;2.00;1.42;;;1.20;46.80;;;;;;5079438;28;20019;-73
2021/03/21 00:47:30;;;;;;;2.10;1.70;;;1.20;50.30;;;;;;5079857;28;20020;-73
2021/03/21 00:49:56;;;;;;;3.38;1.65;;;1.00;51.60;;;;;;5079385;28;20025;-72
2021/03/21 00:52:21;;;;;;;2.50;1.90;;;0.90;52.90;;;;;;5079432;28;20036;-73
2021/03/21 00:54:47;;;;;;;2.95;1.73;;;0.80;54.50;;;;;;5079497;28;20048;-72
2021/03/21 00:57:13;;;;;;;2.22;1.60;;;0.60;56.00;;;;;;5079475;28;20025;-73
2021/03/21 00:59:40;;;;;;;3.15;1.60;;;0.50;56.00;;;;;;5061408;28;20027;-73
2021/03/21 01:02:06;;;;;;;1.98;1.55;;;0.50;56.20;;;;;;5079442;28;20029;-72
2021/03/21 01:04:31;;;;;;;3.25;1.80;;;0.40;56.90;;;;;;5060663;28;20032;-73
2021/03/21 01:06:57;;;;;;;2.30;1.70;;;0.40;56.80;;;;;;5079421;28;20037;-72
2021/03/21 01:09:24;;;;;;;3.38;2.10;;;0.30;57.60;;;;;;5079094;28;20025;-72
2021/03/21 01:11:49;;;;;;;2.85;1.88;;;0.10;58.60;;;;;;5079263;28;20032;-72
2021/03/21 01:14:15;;;;;;;2.40;1.65;;;0.00;59.00;;;;;;5078890;28;20020;-73
2021/03/21 01:16:42;;;;;;;4.18;2.28;;;-0.10;59.40;;;;;;5079222;28;20032;-73
2021/03/21 01:19:17;;;;;;;2.55;1.70;;;-0.20;59.70;;;;;;5078771;28;20044;-72
2021/03/21 01:21:44;;;;;;;4.18;1.85;;;-0.30;60.40;;;;;;5078886;28;20056;-72
2021/03/21 01:24:15;;;;;;;2.83;1.38;;;-0.30;60.20;;;;;;5078461;28;20021;-73
2021/03/21 01:26:41;;;;;;;4.35;1.80;;;-0.30;59.40;;;;;;5079015;28;20036;-72
2021/03/21 01:29:07;;;;;;;1.88;1.40;;;-0.40;57.60;;;;;;5078787;28;20074;-73
2021/03/21 01:31:34;;;;;;;2.75;1.30;;;-0.40;57.10;;;;;;5060902;28;20032;-72
2021/03/21 01:33:59;;;;;;;2.75;1.58;;;-0.40;55.30;;;;;;5078534;28;20031;-73
2021/03/21 01:36:26;;;;;;;2.63;1.73;;;-0.30;54.40;;;;;;5078575;28;20028;-72
2021/03/21 01:38:54;;;;;;;2.30;1.60;;;-0.20;55.60;;;;;;5078439;28;20038;-72
2021/03/21 01:41:27;;;;;;;2.83;2.10;;;-0.10;57.50;;;;;;5078693;28;20312;-72
2021/03/21 01:43:53;;;;;;;2.08;1.70;;;0.00;58.10;;;;;;5078643;28;20029;-73
2021/03/21 01:46:28;;;;;;;2.65;1.73;;;0.00;57.80;;;;;;5060591;28;20062;-72
2021/03/21 01:48:56;;;;;;;2.35;1.77;;;-0.10;58.80;;;;;;5078375;28;20073;-72
2021/03/21 01:51:33;;;;;;;4.45;1.90;;;-0.20;60.70;;;;;;5078262;28;20364;-72
2021/03/21 01:54:03;;;;;;;3.22;2.05;;;-0.30;61.00;;;;;;5078576;28;20081;-72
2021/03/21 01:56:31;;;;;;;3.20;1.80;;;-0.50;62.40;;;;;;5078156;28;20114;-72
2021/03/21 01:59:16;;;;;;;2.90;2.38;;;-0.70;61.50;;;;;;5078040;28;20059;-72
2021/03/21 02:01:42;;;;;;;2.38;1.92;;;-0.70;61.60;;;;;;5078699;28;20025;-72
2021/03/21 02:04:08;;;;;;;2.70;1.70;;;-0.70;61.60;;;;;;5077911;28;20127;-72
2021/03/21 02:06:37;;;;;;;2.45;1.80;;;-0.70;62.00;;;;;;5077961;28;20020;-72
2021/03/21 02:09:18;;;;;;;2.75;1.85;;;-0.80;61.00;;;;;;5077851;28;20032;-72
2021/03/21 02:12:02;;;;;;;2.80;1.60;;;-0.90;60.70;;;;;;5078028;28;20035;-72
2021/03/21 02:14:34;;;;;;;2.10;1.40;;;-0.90;59.60;;;;;;5077365;28;20021;-72
2021/03/21 02:17:03;;;;;;;2.83;1.42;;;-1.00;58.90;;;;;;5059564;28;20028;-72
2021/03/21 02:20:06;;;;;;;2.22;1.83;;;-1.00;60.40;;;;;;5077872;28;20297;-72
2021/03/21 02:22:45;;;;;;;3.10;2.40;;;-1.10;61.80;;;;;;5077631;28;20120;-72
2021/03/21 02:25:36;;;;;;;2.90;2.17;;;-1.10;62.90;;;;;;5056313;28;20059;-72
2021/03/21 02:28:10;;;;;;;3.83;1.70;;;-1.10;62.90;;;;;;5057577;28;20116;-72
2021/03/21 02:30:41;;;;;;;4.05;2.00;;;-1.00;60.80;;;;;;5057650;28;20021;-72
2021/03/21 02:33:14;;;;;;;2.30;1.60;;;-0.80;59.90;;;;;;5057371;28;20029;-72
2021/03/21 02:36:13;;;;;;;2.92;1.92;;;-0.70;58.40;;;;;;5057643;28;20021;-72
2021/03/21 02:38:48;;;;;;;2.63;1.80;;;-0.60;57.40;;;;;;5057506;28;20379;-72
2021/03/21 02:41:41;;;;;;;1.70;0.88;;;-0.60;59.00;;;;;;5056281;28;20025;-72
2021/03/21 02:44:16;;;;;;;4.07;1.63;;;-0.30;44.10;;;;;;5057205;28;20056;-72
2021/03/21 02:46:47;;;;;;;2.47;1.27;;;-0.10;53.10;;;;;;5057398;28;20025;-72
2021/03/21 02:49:37;;;;;;;2.20;1.58;;;-0.10;54.00;;;;;;5056141;28;20424;-72
2021/03/21 02:52:08;;;;;;;2.35;1.27;;;-0.20;54.40;;;;;;5057103;28;20051;-72
2021/03/21 02:54:35;;;;;;;1.58;1.10;;;-0.40;50.60;;;;;;5057110;28;20045;-72
2021/03/21 02:57:10;;;;;;;1.85;1.20;;;-0.30;48.40;;;;;;5057024;28;20021;-72
2021/03/21 02:59:39;;;;;;;1.65;1.10;;;-0.20;47.90;;;;;;5057013;28;20523;-72
2021/03/21 03:02:30;;;;;;;1.50;1.00;;;-0.10;43.90;;;;;;5057256;28;20021;-72
2021/03/21 03:05:06;;;;;;;1.20;0.82;;;0.20;41.20;;;;;;5049837;28;20037;-72
2021/03/21 03:07:36;;;;;;;;;;;0.40;40.10;;;;;;5057299;28;20066;-72
2021/03/21 03:10:22;;;;;;;1.67;1.00;;;0.50;39.10;;;;;;5056894;28;20004;-72
2021/03/21 03:12:54;;;;;;;1.40;1.00;;;0.60;39.60;;;;;;5056888;28;20460;-72
2021/03/21 03:15:21;;;;;;;1.35;1.02;;;0.50;42.20;;;;;;5056837;28;20035;-72
2021/03/21 03:18:18;;;;;;;2.47;0.90;;;0.40;42.80;;;;;;5056953;28;20289;-72
2021/03/21 03:20:54;;;;;;;2.47;0.93;;;0.30;42.30;;;;;;5050801;28;20424;-72
2021/03/21 03:23:33;;;;;;;1.63;1.02;;;0.50;38.40;;;;;;5056909;28;20021;-72
2021/03/21 03:26:18;;;;;;;0.90;0.80;;;0.50;37.20;;;;;;5072333;28;20371;-72
2021/03/21 03:28:57;;;;;;;3.50;0.95;;;0.60;37.30;;;;;;5076967;28;20029;-72
2021/03/21 03:31:39;;;;;;;2.00;1.08;;;0.60;38.90;;;;;;5076969;28;20025;-72
2021/03/21 03:34:05;;;;;;;1.38;0.93;;;0.50;38.40;;;;;;5076857;28;20102;-72
2021/03/21 03:36:32;;;;;;;1.10;0.90;;;0.50;36.50;;;;;;5058762;28;20028;-72
2021/03/21 03:38:58;;;;;;;1.95;1.10;;;0.60;37.40;;;;;;5058703;28;20056;-72
2021/03/21 03:41:35;;;;;;;1.42;0.93;;;0.50;40.70;;;;;;5076797;28;20048;-72
2021/03/21 03:44:16;;;;;;;1.20;0.90;;;0.30;41.20;;;;;;5076725;28;20036;-72
2021/03/21 03:47:05;;;;;;;0.98;0.75;;;0.00;43.30;;;;;;5076595;28;20424;-72
2021/03/21 03:49:41;;;;;;;1.42;0.98;;;-0.20;44.60;;;;;;5038790;28;20420;-72
2021/03/21 03:52:32;;;;;;;1.92;1.08;;;-0.30;46.40;;;;;;5058655;28;20031;-72
2021/03/21 03:55:10;;;;;;;2.38;0.98;;;-0.40;41.30;;;;;;5076384;28;20103;-72
2021/03/21 03:57:46;;;;;;;6.70;1.17;;;-0.50;44.20;;;;;;5076476;28;20104;-72
2021/03/21 04:00:20;;;;;;;1.42;1.20;;;-0.50;46.50;;;;;;5076454;28;20028;-72
2021/03/21 04:02:56;;;;;;;1.42;1.00;;;-0.50;47.80;;;;;;5076747;28;20051;-72
2021/03/21 04:05:35;;;;;;;1.67;1.35;;;-0.50;48.00;;;;;;5076339;28;20029;-72
2021/03/21 04:08:11;;;;;;;3.42;0.95;;;-0.50;48.10;;;;;;5076222;28;20066;-72
2021/03/21 04:10:45;;;;;;;1.92;1.05;;;-0.60;48.50;;;;;;5076885;28;20417;-72
2021/03/21 04:13:14;;;;;;;2.15;1.02;;;-0.70;49.00;;;;;;5076206;28;20029;-72
2021/03/21 04:15:46;;;;;;;1.73;1.23;;;-0.90;47.40;;;;;;5058461;28;20067;-72
2021/03/21 04:18:22;;;;;;;2.22;1.60;;;-0.90;49.90;;;;;;5076475;28;20355;-72
2021/03/21 04:21:02;;;;;;;2.08;1.00;;;-1.00;51.10;;;;;;5076371;28;20024;-72
2021/03/21 04:23:52;;;;;;;1.90;1.10;;;-1.10;52.70;;;;;;5076502;28;20029;-72
2021/03/21 04:26:28;;;;;;;1.80;1.20;;;-1.20;53.30;;;;;;5076008;28;20045;-72
2021/03/21 04:29:00;;;;;;;1.67;1.10;;;-1.40;53.20;;;;;;5076230;28;20066;-72
2021/03/21 04:31:28;;;;;;;1.65;1.15;;;-1.40;52.20;;;;;;5058364;28;20028;-72
2021/03/21 04:34:02;;;;;;;3.20;1.10;;;-1.50;51.90;;;;;;5058240;28;20130;-72
2021/03/21 04:36:36;;;;;;;1.50;0.98;;;-1.50;50.20;;;;;;5076335;28;20434;-72
2021/03/21 04:39:06;;;;;;;1.35;1.02;;;-1.50;51.60;;;;;;5077542;28;20028;-72
2021/03/21 04:41:45;;;;;;;1.27;0.90;;;-1.60;51.70;;;;;;5080053;28;20286;-72
2021/03/21 04:44:16;;;;;;;1.63;1.25;;;-1.50;52.20;;;;;;5079445;28;20021;-72
2021/03/21 04:46:51;;;;;;;2.17;1.10;;;-1.60;50.50;;;;;;5079510;28;20017;-72
2021/03/21 04:49:19;;;;;;;2.07;1.10;;;-1.60;52.40;;;;;;5079518;28;20058;-72
2021/03/21 04:51:45;;;;;;;1.65;1.02;;;-1.60;54.30;;;;;;5079674;28;20037;-72
2021/03/21 04:54:25;;;;;;;1.70;1.15;;;-1.70;53.40;;;;;;5079780;28;20029;-72
2021/03/21 04:57:33;;;;;;;1.65;0.95;;;-1.70;51.20;;;;;;5079543;28;20479;-72
2021/03/21 05:00:00;;;;;;;1.50;1.00;;;-1.60;50.40;;;;;;5052790;28;20051;-72
2021/03/21 05:02:30;;;;;;;1.67;1.17;;;-1.60;50.90;;;;;;5079457;28;20028;-72
2021/03/21 05:05:06;;;;;;;2.13;1.13;;;-1.60;51.40;;;;;;5061370;28;20112;-72
2021/03/21 05:07:54;;;;;;;2.17;1.25;;;-1.60;51.70;;;;;;5079473;28;20340;-72
2021/03/21 05:10:28;;;;;;;1.27;1.02;;;-1.60;52.50;;;;;;5079126;28;20027;-72
2021/03/21 05:12:53;;;;;;;2.42;1.05;;;-1.60;51.40;;;;;;5079035;28;20028;-72
2021/03/21 05:15:38;;;;;;;2.88;1.60;;;-1.60;51.50;;;;;;5079089;28;20021;-72
2021/03/21 05:18:40;;;;;;;1.40;1.10;;;-1.60;51.70;;;;;;5079148;28;20031;-72
2021/03/21 05:21:42;;;;;;;2.00;1.02;;;-1.60;48.70;;;;;;5079179;28;20052;-72
2021/03/21 05:24:30;;;;;;;1.15;0.90;;;-1.30;46.80;;;;;;5079096;28;20103;-72
2021/03/21 05:27:26;;;;;;;1.95;1.13;;;-1.20;44.30;;;;;;5061018;28;20037;-72
2021/03/21 05:30:19;;;;;;;1.65;0.80;;;-1.00;44.80;;;;;;5076787;28;20028;-72
2021/03/21 05:32:49;;;;;;;1.77;1.52;;;-0.90;44.00;;;;;;5070564;28;20049;-72
2021/03/21 05:35:26;;;;;;;4.00;1.17;;;-0.90;45.90;;;;;;5078588;28;20024;-72
2021/03/21 05:38:10;;;;;;;1.33;0.90;;;-0.90;48.30;;;;;;5078872;28;20028;-72
2021/03/21 05:41:10;;;;;;;1.50;1.20;;;-0.90;46.70;;;;;;5060707;28;20024;-72
2021/03/21 05:43:54;;;;;;;1.27;0.82;;;-0.90;46.80;;;;;;5078668;28;20029;-72
2021/03/21 05:46:23;;;;;;;1.27;0.90;;;-0.70;48.00;;;;;;5078458;28;20355;-72
2021/03/21 05:49:00;;;;;;;1.73;0.98;;;-0.60;46.80;;;;;;5078292;28;20025;-72
2021/03/21 05:52:02;;;;;;;3.50;1.15;;;-0.40;43.00;;;;;;5078360;28;20069;-72
2021/03/21 05:54:36;;;;;;;1.85;1.00;;;-0.10;41.70;;;;;;5078132;28;20042;-72
2021/03/21 05:57:05;;;;;;;3.17;1.48;;;0.20;41.50;;;;;;5060397;28;20111;-72
2021/03/21 05:59:52;;;;;;;1.42;1.00;;;0.20;42.50;;;;;;5078086;28;20024;-72
2021/03/21 06:02:48;;;;;;;1.50;1.20;;;0.30;41.40;;;;;;5078392;28;20049;-72
2021/03/21 06:05:23;;;;;;;1.70;1.10;;;0.40;41.70;;;;;;5077987;28;20032;-72
2021/03/21 06:07:48;;;;;;;1.75;1.15;;;0.50;41.80;;;;;;5078446;28;20024;-72
2021/03/21 06:10:29;;;;;;;1.60;1.27;;;0.50;41.30;;;;;;5078156;28;20220;-72
2021/03/21 06:13:16;;;;;;;1.25;1.00;;;0.60;40.90;;;;;;5077976;28;20028;-72
2021/03/21 06:15:57;;;;;;;1.58;1.08;;;0.70;40.80;;;;;;5077879;28;20082;-72
2021/03/21 06:18:30;;;;;;;3.83;1.15;;;0.70;40.70;;;;;;5078025;28;20048;-72
2021/03/21 06:21:17;;;;;;;1.88;1.00;;;0.80;41.90;;;;;;5060025;28;20027;-72
2021/03/21 06:23:55;;;;;;;;;;;0.80;41.10;;;;;;5078543;28;20028;-72
2021/03/21 06:26:32;;;;;;;2.47;0.90;;;0.90;40.80;;;;;;5077431;28;19920;-72
2021/03/21 06:29:14;;;;;;;1.60;1.08;;;1.00;40.00;;;;;;5077706;28;20028;-72
2021/03/21 06:31:49;;;;;;;1.38;1.08;;;1.10;40.20;;;;;;5077818;28;20029;-73
2021/03/21 06:34:20;;;;;;;1.75;1.13;;;1.20;39.30;;;;;;5077384;28;20024;-72
2021/03/21 06:36:48;;;;;;;1.25;0.90;;;1.30;39.30;;;;;;5077678;28;20036;-72
2021/03/21 06:39:23;;;;;;;1.15;0.80;;;1.40;39.90;;;;;;5077374;28;20103;-72
2021/03/21 06:42:27;;;;;;;1.27;0.93;;;1.50;40.50;;;;;;5077564;28;20339;-72
2021/03/21 06:45:20;;;;;;;2.10;1.30;;;1.50;38.80;;;;;;4996140;28;20465;-72
2021/03/21 06:48:16;;;;;;;1.42;1.10;;;1.60;39.90;;;;;;4996152;28;20058;-72
2021/03/21 06:51:09;;;;;;;2.15;1.13;;;1.70;41.10;;;;;;5065661;28;20060;-72
2021/03/21 06:53:59;;;;;;;0.90;0.80;;;1.80;41.90;;;;;;5077447;28;20028;-72
2021/03/21 06:56:31;;;;;;;1.77;0.90;;;1.90;42.70;;;;;;5059390;28;20110;-72
2021/03/21 06:59:35;;;;;;;1.40;1.02;;;1.90;41.70;;;;;;5077073;28;20036;-72
2021/03/21 07:02:22;;;;;;;1.70;1.02;;;2.00;39.40;;;;;;4995375;28;20142;-72
2021/03/21 07:05:18;;;;;;;1.20;0.90;;;2.10;37.70;;;;;;5073485;28;20334;-72
2021/03/21 07:08:21;;;;;;;1.70;1.03;;;2.20;39.30;;;;;;5077001;28;20092;-73
2021/03/21 07:11:14;;;;;;;1.75;1.23;;;2.20;39.90;;;;;;5077167;28;20025;-72
2021/03/21 07:14:33;;;;;;;4.45;1.30;;;2.20;44.70;;;;;;5077048;28;20158;-72
2021/03/21 07:17:11;;;;;;;2.90;1.52;;;2.30;44.90;;;;;;4995750;28;20034;-73
2021/03/21 07:20:31;;;;;;;4.13;1.90;;;2.40;47.60;;;;;;5076741;28;20031;-73
2021/03/21 07:23:24;;;;;;;2.67;1.88;;;2.60;47.30;;;;;;5059072;28;20078;-73
2021/03/21 07:26:08;;;;;;;2.97;2.17;;;2.60;47.30;;;;;;5076610;28;20059;-72
2021/03/21 07:28:59;;;;;;;2.70;1.83;;;2.70;46.00;;;;;;5076717;28;20070;-73
2021/03/21 07:31:33;;;;;;;2.65;1.80;;;2.70;46.20;;;;;;5076917;28;20036;-73
2021/03/21 07:34:33;;;;;;;3.35;1.70;;;2.90;46.20;;;;;;5076604;28;20016;-73
2021/03/21 07:37:12;;;;;;;2.15;1.35;;;3.30;44.10;;;;;;5058820;28;20024;-73
2021/03/21 07:39:47;;;;;;;1.67;1.35;;;3.40;42.30;;;;;;5076471;28;20025;-72
2021/03/21 07:42:29;;;;;;;1.77;1.38;;;3.40;39.80;;;;;;5058744;28;20025;-73
2021/03/21 07:45:22;;;;;;;2.83;1.30;;;3.40;38.60;;;;;;5076560;28;20420;-73
2021/03/21 07:48:08;;;;;;;2.08;1.15;;;3.40;38.90;;;;;;5076760;28;20108;-73
2021/03/21 07:50:52;;;;;;;2.88;1.77;;;3.40;37.00;;;;;;5076532;28;20032;-73
2021/03/21 07:53:35;;;;;;;3.53;1.50;;;3.20;41.70;;;;;;5076376;28;20033;-73
2021/03/21 07:56:25;;;;;;;1.85;1.38;;;3.10;40.60;;;;;;5058594;28;20135;-73
2021/03/21 07:59:01;;;;;;;1.70;1.08;;;3.10;41.50;;;;;;5076478;28;20028;-73
2021/03/21 08:01:28;;;;;;;1.73;1.30;;;3.00;40.10;;;;;;5076432;28;20104;-73
2021/03/21 08:04:21;;;;;;;4.13;2.10;;;3.00;40.20;;;;;;5076280;28;20020;-72
2021/03/21 08:06:54;;;;;;;3.45;1.90;;;3.30;41.90;;;;;;5076549;28;20052;-73
2021/03/21 08:09:22;;;;;;;2.65;1.83;;;3.60;42.10;;;;;;5076413;28;20351;-73
2021/03/21 08:12:05;;;;;;;12.07;6.07;;;3.80;39.70;;;;;;5076249;28;20036;-73
2021/03/21 08:14:32;;;;;;;4.40;3.00;;;4.20;41.70;;;;;;5078603;28;20029;-73
2021/03/21 08:17:07;;;;;;;4.30;2.55;;;5.00;40.40;;;;;;5080088;28;20044;-73
2021/03/21 08:19:35;;;;;;;3.83;2.08;;;6.10;39.60;;;;;;5062326;28;20431;-73
2021/03/21 08:22:02;;;;;;;2.92;2.03;;;7.10;38.30;;;;;;5080009;28;20357;-73
2021/03/21 08:24:32;;;;;;;2.17;1.60;;;8.10;36.40;;;;;;5079690;28;20048;-74
2021/03/21 08:27:01;;;;;;;2.28;1.55;;;9.30;33.40;;;;;;5079910;28;20066;-74
2021/03/21 08:29:28;;;;;;;2.17;1.40;;;10.00;29.20;;;;;;5079930;28;20032;-74
2021/03/21 08:32:10;;;;;;;3.25;2.42;;;10.50;30.60;;;;;;5079851;28;20031;-73
2021/03/21 08:34:47;;;;;;;4.47;2.22;;;11.40;33.50;;;;;;5079894;28;20106;-71
2021/03/21 08:37:12;;;;;;;1.65;1.00;;;12.10;31.50;;;;;;5079865;28;20028;-73
2021/03/21 08:39:48;;;;;;;2.28;1.50;;;12.10;24.90;;;;;;5079595;28;20036;-74
2021/03/21 08:42:41;;;;;;;2.03;1.30;;;12.40;26.10;;;;;;5062189;28;20328;-71
2021/03/21 08:45:12;;;;;;;2.10;1.30;;;12.20;25.60;;;;;;5076368;28;20036;-71
2021/03/21 08:47:39;;;;;;;2.15;1.33;;;11.70;25.80;;;;;;5079787;28;20025;-72
2021/03/21 08:50:10;;;;;;;2.22;1.40;;;11.80;26.20;;;;;;5079767;28;20040;-72
2021/03/21 08:52:44;;;;;;;1.92;1.10;;;11.70;27.60;;;;;;5079579;28;20028;-72
2021/03/21 08:55:34;;;;;;;3.33;1.20;;;11.30;26.30;;;;;;5061634;28;20036;-72
2021/03/21 08:58:24;;;;;;;1.55;0.98;;;11.00;27.60;;;;;;5079347;28;20016;-73
2021/03/21 09:00:49;;;;;;;2.10;1.30;;;10.70;27.30;;;;;;5079408;28;20050;-72
2021/03/21 09:03:29;;;;;;;1.30;1.00;;;10.20;25.40;;;;;;5079163;28;20456;-73
2021/03/21 09:05:57;;;;;;;1.67;1.33;;;9.70;29.00;;;;;;5079147;28;20035;-72
2021/03/21 09:08:26;;;;;;;4.80;1.80;;;9.70;29.80;;;;;;5079536;28;20021;-71
2021/03/21 09:10:56;;;;;;;2.58;1.20;;;9.70;31.50;;;;;;5079405;28;20321;-71
2021/03/21 09:13:28;;;;;;;3.20;1.90;;;9.80;30.70;;;;;;5078970;28;20073;-71
2021/03/21 09:15:54;;;;;;;2.38;1.80;;;9.60;29.70;;;;;;5079280;28;20029;-71
2021/03/21 09:18:26;;;;;;;2.95;1.83;;;9.30;29.60;;;;;;5079189;28;20021;-72
2021/03/21 09:21:14;;;;;;;2.10;1.48;;;8.90;30.90;;;;;;5078832;28;20056;-72
2021/03/21 09:23:55;;;;;;;3.10;1.50;;;8.50;32.60;;;;;;5078784;28;20024;-73
2021/03/21 09:26:28;;;;;;;2.75;1.77;;;8.10;31.50;;;;;;5078595;28;20052;-73
2021/03/21 09:29:15;;;;;;;4.28;1.80;;;7.70;34.60;;;;;;5079023;28;20082;-73
2021/03/21 09:31:41;;;;;;;1.80;1.50;;;7.80;32.60;;;;;;5047063;28;20078;-73
2021/03/21 09:34:19;;;;;;;2.70;1.65;;;8.00;33.10;;;;;;5078593;28;20031;-73
2021/03/21 09:37:05;;;;;;;2.65;1.70;;;8.30;33.00;;;;;;5078633;28;20029;-71
2021/03/21 09:39:33;;;;;;;3.15;1.88;;;8.70;32.90;;;;;;5078582;28;20020;-71
2021/03/21 09:42:01;;;;;;;2.88;1.85;;;9.10;31.80;;;;;;5078490;28;20099;-71
2021/03/21 09:44:40;;;;;;;1.95;1.60;;;9.50;32.70;;;;;;5078372;28;20320;-72
2021/03/21 09:47:20;;;;;;;3.10;1.65;;;9.70;31.90;;;;;;5078521;28;20089;-72
2021/03/21 09:49:51;;;;;;;2.30;1.65;;;9.90;32.50;;;;;;5078381;28;20032;-72
2021/03/21 09:52:35;;;;;;;2.63;1.85;;;9.90;30.00;;;;;;5078352;28;20106;-71
2021/03/21 09:55:26;;;;;;;2.47;1.52;;;9.90;30.20;;;;;;5060455;28;20065;-73
2021/03/21 09:58:12;;;;;;;2.90;1.55;;;9.40;31.70;;;;;;5078358;28;20052;-73
2021/03/21 10:00:41;;;;;;;3.08;1.90;;;8.80;31.50;;;;;;5060356;28;20028;-73
2021/03/21 10:03:17;;;;;;;3.65;1.70;;;8.60;31.20;;;;;;5077933;28;20400;-72
2021/03/21 10:05:55;;;;;;;2.25;1.52;;;8.10;29.20;;;;;;5078484;28;20316;-71
2021/03/21 10:08:33;;;;;;;2.15;1.38;;;8.20;30.40;;;;;;5078041;28;20023;-71
2021/03/21 10:11:02;;;;;;;3.35;1.77;;;8.30;30.90;;;;;;5078207;28;20097;-73
2021/03/21 10:13:40;;;;;;;2.92;1.50;;;8.30;29.60;;;;;;5082648;28;20028;-73
2021/03/21 10:16:15;;;;;;;2.60;1.92;;;8.40;29.10;;;;;;5077972;28;20016;-72
2021/03/21 10:18:54;;;;;;;2.20;1.70;;;8.40;29.60;;;;;;5077654;28;20033;-73
2021/03/21 10:21:31;;;;;;;1.92;1.65;;;8.40;30.30;;;;;;5077989;28;20025;-73
2021/03/21 10:23:57;;;;;;;2.53;1.65;;;8.40;30.00;;;;;;5077999;28;20031;-73
2021/03/21 10:26:30;;;;;;;4.78;1.65;;;8.70;30.10;;;;;;5077491;28;20342;-72
2021/03/21 10:28:58;;;;;;;3.97;1.95;;;8.70;32.10;;;;;;5077659;28;20348;-73
2021/03/21 10:31:25;;;;;;;5.32;2.00;;;9.20;29.20;;;;;;5077458;28;20428;-72
2021/03/21 10:34:03;;;;;;;2.97;1.70;;;9.40;31.20;;;;;;5059626;28;20090;-73
2021/03/21 10:36:41;;;;;;;2.85;1.90;;;9.60;31.40;;;;;;5076613;28;20367;-71
2021/03/21 10:39:23;;;;;;;2.47;1.88;;;9.90;30.30;;;;;;5077512;28;20028;-72
2021/03/21 10:41:54;;;;;;;2.95;1.98;;;10.10;28.50;;;;;;5077358;28;20024;-72
2021/03/21 10:44:30;;;;;;;2.45;1.95;;;9.90;30.60;;;;;;5077458;28;20305;-72
2021/03/21 10:46:56;;;;;;;2.40;1.80;;;9.40;28.40;;;;;;5077288;28;20020;-73
2021/03/21 10:49:43;;;;;;;2.75;1.90;;;9.00;31.60;;;;;;5077269;28;20321;-73
2021/03/21 10:52:23;;;;;;;5.03;2.05;;;8.70;31.70;;;;;;5077294;28;20317;-72
2021/03/21 10:55:16;;;;;;;4.03;2.40;;;8.60;30.50;;;;;;5077087;28;20063;-72
2021/03/21 10:57:44;;;;;;;2.47;1.85;;;8.40;30.10;;;;;;5059184;28;20028;-73
2021/03/21 11:00:10;;;;;;;3.42;2.10;;;7.90;31.90;;;;;;5076933;28;20028;-73
2021/03/21 11:02:37;;;;;;;3.25;2.10;;;7.80;31.30;;;;;;5076828;28;20074;-72
2021/03/21 11:05:07;;;;;;;3.15;1.90;;;7.70;32.40;;;;;;5076912;28;20020;-73
2021/03/21 11:07:33;;;;;;;5.28;2.63;;;7.80;31.60;;;;;;5076980;28;20078;-73
2021/03/21 11:10:07;;;;;;;3.33;1.98;;;7.90;33.30;;;;;;5077101;28;20020;-73
2021/03/21 11:12:41;;;;;;;2.92;1.90;;;8.40;32.60;;;;;;5077206;28;20074;-73
2021/03/21 11:15:18;;;;;;;2.83;1.77;;;9.20;31.40;;;;;;5076997;28;20055;-74
2021/03/21 11:17:44;;;;;;;4.20;1.83;;;9.70;32.20;;;;;;5076888;28;20025;-71
2021/03/21 11:20:25;;;;;;;4.65;2.30;;;9.50;30.80;;;;;;5077258;28;20343;-73
2021/03/21 11:22:51;;;;;;;4.68;1.90;;;9.70;32.80;;;;;;5076876;28;20460;-73
2021/03/21 11:25:30;;;;;;;3.50;2.25;;;10.50;33.40;;;;;;5076490;28;20037;-72
2021/03/21 11:27:55;;;;;;;2.53;1.90;;;11.60;30.00;;;;;;5058937;28;20028;-72
2021/03/21 11:30:27;;;;;;;2.58;2.03;;;12.40;28.30;;;;;;5076674;28;20028;-72
2021/03/21 11:32:57;;;;;;;3.20;2.20;;;12.90;30.50;;;;;;5076643;28;20328;-72
2021/03/21 11:35:28;;;;;;;3.55;2.28;;;12.50;28.30;;;;;;5076692;28;20031;-72
2021/03/21 11:37:56;;;;;;;4.32;2.25;;;11.50;28.40;;;;;;5077102;28;20025;-72
2021/03/21 11:40:35;;;;;;;2.40;2.05;;;10.80;27.90;;;;;;5076559;28;20171;-72
2021/03/21 11:43:21;;;;;;;3.72;2.08;;;10.30;28.00;;;;;;5076472;28;20066;-72
2021/03/21 11:45:48;;;;;;;3.15;2.45;;;10.40;31.00;;;;;;5062759;28;20033;-72
2021/03/21 11:48:34;;;;;;;4.35;2.40;;;11.20;30.40;;;;;;5078800;28;20473;-72
2021/03/21 11:51:01;;;;;;;2.95;1.85;;;11.60;29.60;;;;;;5080892;28;20028;-72
2021/03/21 11:53:32;;;;;;;3.05;2.33;;;12.10;29.80;;;;;;5080753;28;20043;-72
2021/03/21 11:56:36;;;;;;;6.93;1.90;;;12.00;27.50;;;;;;5062851;28;20037;-72
2021/03/21 11:59:17;;;;;;;3.30;2.45;;;12.10;32.50;;;;;;5039260;28;20039;-72
2021/03/21 12:01:49;;;;;;;2.85;2.17;;;12.30;30.10;;;;;;5080451;28;20062;-73
2021/03/21 12:04:22;;;;;;;4.32;3.00;;;12.40;28.30;;;;;;5080292;28;20052;-71
2021/03/21 12:06:49;;;;;;;1.90;1.60;;;12.10;31.20;;;;;;5062522;28;20024;-71
2021/03/21 12:09:29;;;;;;;3.45;2.63;;;12.20;31.40;;;;;;5080435;28;20028;-71
2021/03/21 12:11:58;;;;;;;2.72;2.28;;;11.50;28.00;;;;;;5080742;28;20041;-73
2021/03/21 12:14:33;;;;;;;3.15;1.90;;;11.30;28.50;;;;;;5080185;28;20152;-73
2021/03/21 12:17:20;;;;;;;3.55;1.90;;;11.10;30.20;;;;;;5080037;28;20408;-71
2021/03/21 12:19:46;;;;;;;2.85;2.22;;;10.90;31.20;;;;;;5062108;28;20423;-71
2021/03/21 12:22:25;;;;;;;4.68;2.42;;;10.40;30.80;;;;;;5079929;28;20070;-71
2021/03/21 12:24:56;;;;;;;4.15;2.17;;;9.80;29.30;;;;;;5079677;28;20093;-74
2021/03/21 12:27:30;;;;;;;2.72;1.88;;;9.30;32.00;;;;;;5080077;28;20029;-73
2021/03/21 12:30:05;;;;;;;4.28;2.63;;;9.10;33.00;;;;;;5079991;28;20103;-73
2021/03/21 12:32:34;;;;;;;2.85;2.35;;;8.80;33.70;;;;;;5079825;28;20082;-73
2021/03/21 12:35:03;;;;;;;3.47;2.20;;;8.90;33.10;;;;;;5079719;28;20052;-73
2021/03/21 12:37:48;;;;;;;3.60;2.00;;;9.00;35.00;;;;;;5079750;28;20032;-73
2021/03/21 12:40:30;;;;;;;2.90;2.10;;;9.10;32.80;;;;;;5079914;28;20414;-71
2021/03/21 12:42:56;;;;;;;2.55;2.08;;;9.10;35.50;;;;;;5079550;28;20020;-73
2021/03/21 12:45:32;;;;;;;3.25;2.35;;;8.90;32.90;;;;;;5079622;28;20020;-74
2021/03/21 12:48:04;;;;;;;4.32;2.47;;;8.90;34.10;;;;;;5079747;28;20028;-74
2021/03/21 12:50:29;;;;;;;3.40;2.47;;;9.00;34.50;;;;;;5079858;28;20043;-73
2021/03/21 12:52:56;;;;;;;3.45;2.42;;;9.20;36.10;;;;;;5079512;28;20396;-74
2021/03/21 12:55:22;;;;;;;4.05;2.40;;;9.20;32.50;;;;;;5061682;28;20033;-73
2021/03/21 12:57:51;;;;;;;3.72;2.50;;;9.10;31.70;;;;;;5061643;28;20109;-72
2021/03/21 13:00:20;;;;;;;3.13;2.20;;;9.00;34.40;;;;;;5060534;28;20020;-73
2021/03/21 13:02:51;;;;;;;4.97;2.45;;;8.80;36.60;;;;;;5079204;28;20016;-74
2021/03/21 13:05:28;;;;;;;4.10;2.60;;;8.70;32.70;;;;;;5079483;28;20078;-73
2021/03/21 13:07:55;;;;;;;5.78;2.55;;;8.60;31.50;;;;;;5079480;28;20100;-74
2021/03/21 13:10:22;;;;;;;4.47;2.47;;;8.30;32.30;;;;;;5079398;28;20044;-73
2021/03/21 13:12:48;;;;;;;3.58;2.58;;;8.00;32.60;;;;;;5079079;28;20048;-73
2021/03/21 13:15:14;;;;;;;3.63;2.33;;;7.80;36.90;;;;;;5078979;28;20424;-74
2021/03/21 13:17:40;;;;;;;5.93;2.72;;;8.00;36.10;;;;;;5061238;28;20028;-73
2021/03/21 13:20:08;;;;;;;8.60;2.25;;;8.20;35.50;;;;;;5078909;28;20427;-72
2021/03/21 13:22:34;;;;;;;5.95;3.22;;;8.20;33.40;;;;;;5078905;28;20104;-71
2021/03/21 13:25:00;;;;;;;3.97;2.60;;;8.20;35.20;;;;;;5078495;28;20127;-72
2021/03/21 13:27:26;;;;;;;7.18;3.42;;;8.20;33.50;;;;;;5078993;28;20021;-71
2021/03/21 13:29:53;;;;;;;4.43;2.22;;;8.20;34.90;;;;;;5078774;28;20302;-71
2021/03/21 13:32:19;;;;;;;3.67;2.40;;;8.30;34.20;;;;;;5079307;28;20337;-72
2021/03/21 13:34:46;;;;;;;3.97;2.35;;;8.40;33.80;;;;;;5060820;28;20055;-73
2021/03/21 13:37:12;;;;;;;3.58;2.60;;;8.40;36.70;;;;;;5078571;28;20474;-73